createdAt,value
2018-03-02T00:00:47.475Z,98550.73
2018-03-02T00:03:14.966Z,98541.98
2018-03-02T00:05:42.435Z,98542.91
2018-03-02T00:08:09.957Z,98538.00
2018-03-02T00:10:37.431Z,98539.14
2018-03-02T00:13:04.933Z,98547.11
2018-03-02T00:15:32.399Z,98543.45
2018-03-02T00:17:59.896Z,98551.03
2018-03-02T00:20:27.369Z,98551.00
2018-03-02T00:22:54.884Z,98547.33
2018-03-02T00:25:22.347Z,98549.30
2018-03-02T00:27:49.844Z,98551.32
2018-03-02T00:30:17.311Z,98545.31
2018-03-02T00:32:44.812Z,98535.58
2018-03-02T00:35:12.279Z,98531.63
2018-03-02T00:37:39.775Z,98519.45
2018-03-02T00:40:07.235Z,98527.01
2018-03-02T00:42:34.731Z,98530.11
2018-03-02T00:45:02.196Z,98529.98
2018-03-02T00:47:29.679Z,98522.42
2018-03-02T00:49:57.146Z,98518.62
2018-03-02T00:52:24.628Z,98505.95
2018-03-02T00:54:52.101Z,98503.70
2018-03-02T00:57:19.583Z,98500.45
2018-03-02T00:59:47.052Z,98493.27
2018-03-02T01:02:14.532Z,98494.50
2018-03-02T01:04:41.991Z,98493.90
2018-03-02T01:07:09.479Z,98477.83
2018-03-02T01:09:36.940Z,98479.06
2018-03-02T01:12:04.440Z,98486.61
2018-03-02T01:14:31.965Z,98477.37
2018-03-02T01:16:59.482Z,98475.41
2018-03-02T01:19:27.026Z,98465.78
2018-03-02T01:21:54.500Z,98469.06
2018-03-02T01:24:21.982Z,98479.16
2018-03-02T01:26:49.474Z,98477.13
2018-03-02T01:29:16.959Z,98467.41
2018-03-02T01:31:44.423Z,98477.08
2018-03-02T01:34:11.911Z,98474.02
2018-03-02T01:36:39.372Z,98470.54
2018-03-02T01:39:06.863Z,98471.50
2018-03-02T01:41:34.332Z,98464.26
2018-03-02T01:44:01.829Z,98458.12
2018-03-02T01:46:29.291Z,98454.05
2018-03-02T01:48:56.779Z,98454.52
2018-03-02T01:51:36.099Z,98457.12
2018-03-02T01:54:03.583Z,98452.55
2018-03-02T01:56:31.052Z,98446.91
2018-03-02T01:58:58.539Z,98453.04
2018-03-02T02:01:25.999Z,98444.48
2018-03-02T02:03:53.485Z,98441.28
2018-03-02T02:06:20.980Z,98429.64
2018-03-02T02:08:48.482Z,98416.13
2018-03-02T02:11:15.947Z,98416.59
2018-03-02T02:13:43.442Z,98423.05
2018-03-02T02:16:10.914Z,98416.69
2018-03-02T02:18:38.394Z,98402.72
2018-03-02T02:21:05.878Z,98404.31
2018-03-02T02:23:33.367Z,98405.95
2018-03-02T02:26:00.831Z,98400.29
2018-03-02T02:28:28.334Z,98406.93
2018-03-02T02:30:55.811Z,98402.91
2018-03-02T02:33:23.300Z,98401.22
2018-03-02T02:35:50.765Z,98404.55
2018-03-02T02:38:18.269Z,98402.45
2018-03-02T02:40:45.743Z,98401.16
2018-03-02T02:43:13.241Z,98403.41
2018-03-02T02:45:40.707Z,98405.46
2018-03-02T02:48:08.193Z,98400.25
2018-03-02T02:50:35.693Z,98391.86
2018-03-02T02:53:03.151Z,98398.04
2018-03-02T02:55:30.638Z,98400.56
2018-03-02T02:57:58.102Z,98389.84
2018-03-02T03:00:25.604Z,98380.55
2018-03-02T03:02:53.072Z,98387.66
2018-03-02T03:05:20.555Z,98382.12
2018-03-02T03:07:48.080Z,98386.28
2018-03-02T03:10:15.572Z,98378.73
2018-03-02T03:12:43.034Z,98376.39
2018-03-02T03:15:10.520Z,98374.16
2018-03-02T03:17:37.995Z,98366.28
2018-03-02T03:20:05.487Z,98378.73
2018-03-02T03:22:32.980Z,98373.34
2018-03-02T03:25:00.468Z,98375.86
2018-03-02T03:27:27.932Z,98358.69
2018-03-02T03:29:55.414Z,98372.20
2018-03-02T03:32:22.875Z,98366.48
2018-03-02T03:34:50.367Z,98359.92
2018-03-02T03:37:17.852Z,98354.02
2018-03-02T03:39:45.334Z,98350.55
2018-03-02T03:42:12.794Z,98356.18
2018-03-02T03:44:40.283Z,98357.83
2018-03-02T03:47:07.747Z,98351.25
2018-03-02T03:49:35.231Z,98352.70
2018-03-02T03:52:02.720Z,98362.97
2018-03-02T03:54:30.211Z,98354.31
2018-03-02T03:56:57.680Z,98354.72
2018-03-02T03:59:25.163Z,98348.45
2018-03-02T04:01:52.648Z,98352.12
2018-03-02T04:04:20.131Z,98348.55
2018-03-02T04:06:47.595Z,98345.12
2018-03-02T04:09:15.067Z,98347.41
2018-03-02T04:11:42.575Z,98334.97
2018-03-02T04:14:10.031Z,98334.96
2018-03-02T04:16:37.515Z,98325.89
2018-03-02T04:19:04.977Z,98316.52
2018-03-02T04:21:32.455Z,98315.69
2018-03-02T04:24:00.055Z,98310.81
2018-03-02T04:26:27.547Z,98311.02
2018-03-02T04:28:55.015Z,98299.34
2018-03-02T04:31:22.516Z,98286.16
2018-03-02T04:33:49.974Z,98286.77
2018-03-02T04:36:17.490Z,98288.33
2018-03-02T04:38:44.961Z,98271.53
2018-03-02T04:41:13.154Z,98281.19
2018-03-02T04:43:40.623Z,98269.24
2018-03-02T04:46:08.104Z,98284.03
2018-03-02T04:48:35.590Z,98274.47
2018-03-02T04:51:03.069Z,98280.41
2018-03-02T04:53:30.531Z,98276.52
2018-03-02T04:55:58.039Z,98282.70
2018-03-02T04:58:25.506Z,98279.19
2018-03-02T05:00:52.990Z,98278.17
2018-03-02T05:03:20.474Z,98278.04
2018-03-02T05:05:47.964Z,98267.61
2018-03-02T05:08:15.433Z,98260.09
2018-03-02T05:10:42.928Z,98256.66
2018-03-02T05:13:10.395Z,98263.44
2018-03-02T05:15:37.891Z,98258.78
2018-03-02T05:18:05.392Z,98253.83
2018-03-02T05:20:32.879Z,98256.39
2018-03-02T05:23:00.347Z,98255.70
2018-03-02T05:25:27.833Z,98252.72
2018-03-02T05:27:55.311Z,98252.72
2018-03-02T05:30:22.770Z,98243.77
2018-03-02T05:32:50.263Z,98243.31
2018-03-02T05:35:17.736Z,98234.29
2018-03-02T05:37:45.215Z,98228.08
2018-03-02T05:40:12.680Z,98222.36
2018-03-02T05:42:40.189Z,98219.85
2018-03-02T05:45:07.667Z,98225.98
2018-03-02T05:47:35.156Z,98222.14
2018-03-02T05:50:02.620Z,98216.61
2018-03-02T05:52:30.115Z,98221.19
2018-03-02T05:54:57.574Z,98219.08
2018-03-02T05:57:25.054Z,98213.28
2018-03-02T05:59:52.514Z,98212.72
2018-03-02T06:02:20.001Z,98210.22
2018-03-02T06:04:47.461Z,98209.55
2018-03-02T06:07:14.960Z,98205.39
2018-03-02T06:09:42.423Z,98209.69
2018-03-02T06:12:09.920Z,98209.78
2018-03-02T06:14:37.392Z,98216.33
2018-03-02T06:17:04.872Z,98219.27
2018-03-02T06:19:33.088Z,98220.95
2018-03-02T06:22:02.198Z,98219.34
2018-03-02T06:24:29.658Z,98225.40
2018-03-02T06:26:57.139Z,98231.44
2018-03-02T06:29:24.600Z,98231.03
2018-03-02T06:31:52.079Z,98233.63
2018-03-02T06:34:19.551Z,98228.77
2018-03-02T06:36:47.039Z,98231.98
2018-03-02T06:39:14.510Z,98229.45
2018-03-02T06:41:42.000Z,98230.64
2018-03-02T06:44:09.471Z,98232.73
2018-03-02T06:46:37.190Z,98229.86
2018-03-02T06:49:04.659Z,98219.38
2018-03-02T06:51:33.260Z,98219.06
2018-03-02T06:54:08.399Z,98217.83
2018-03-02T06:56:35.910Z,98214.66
2018-03-02T06:59:03.399Z,98218.17
2018-03-02T07:01:30.877Z,98216.95
2018-03-02T07:03:58.364Z,98218.14
2018-03-02T07:06:25.835Z,98216.53
2018-03-02T07:08:53.323Z,98211.87
2018-03-02T07:11:20.791Z,98211.45
2018-03-02T07:13:48.283Z,98208.97
2018-03-02T07:16:15.739Z,98209.59
2018-03-02T07:18:43.235Z,98210.86
2018-03-02T07:21:10.699Z,98210.16
2018-03-02T07:23:38.186Z,98215.73
2018-03-02T07:26:05.672Z,98201.33
2018-03-02T07:28:33.210Z,98198.41
2018-03-02T07:31:00.675Z,98204.97
2018-03-02T07:33:28.171Z,98198.34
2018-03-02T07:35:55.630Z,98191.32
2018-03-02T07:38:23.161Z,98198.16
2018-03-02T07:40:50.677Z,98196.05
2018-03-02T07:43:18.168Z,98192.73
2018-03-02T07:45:45.651Z,98194.56
2018-03-02T07:48:13.143Z,98196.28
2018-03-02T07:50:40.609Z,98194.13
2018-03-02T07:53:08.104Z,98197.63
2018-03-02T07:55:35.580Z,98193.39
2018-03-02T07:58:03.044Z,98187.48
2018-03-02T08:00:30.523Z,98183.44
2018-03-02T08:02:57.988Z,98170.48
2018-03-02T08:05:25.476Z,98172.70
2018-03-02T08:07:52.946Z,98161.93
2018-03-02T08:10:20.431Z,98174.95
2018-03-02T08:12:47.899Z,98187.06
2018-03-02T08:15:15.382Z,98181.22
2018-03-02T08:17:42.848Z,98174.63
2018-03-02T08:20:10.338Z,98184.79
2018-03-02T08:22:37.801Z,98182.51
2018-03-02T08:25:05.287Z,98182.84
2018-03-02T08:27:32.789Z,98180.11
2018-03-02T08:30:00.271Z,98183.18
2018-03-02T08:32:27.750Z,98177.65
2018-03-02T08:34:55.248Z,98184.22
2018-03-02T08:37:22.719Z,98179.02
2018-03-02T08:39:50.202Z,98184.28
2018-03-02T08:42:17.666Z,98168.44
2018-03-02T08:44:45.143Z,98173.47
2018-03-02T08:47:12.606Z,98173.77
2018-03-02T08:49:40.108Z,98176.23
2018-03-02T08:52:07.569Z,98185.80
2018-03-02T08:54:35.076Z,98180.11
2018-03-02T08:57:02.563Z,98181.91
2018-03-02T08:59:30.046Z,98181.80
2018-03-02T09:01:57.535Z,98182.41
2018-03-02T09:04:25.009Z,98187.53
2018-03-02T09:06:52.467Z,98191.94
2018-03-02T09:09:19.932Z,98189.69
2018-03-02T09:11:47.908Z,98194.25
2018-03-02T09:14:15.376Z,98206.23
2018-03-02T09:16:42.852Z,98200.73
2018-03-02T09:19:10.344Z,98197.93
2018-03-02T09:21:37.827Z,98206.28
2018-03-02T09:24:05.302Z,98196.91
2018-03-02T09:26:32.783Z,98192.70
2018-03-02T09:29:00.239Z,98195.69
2018-03-02T09:31:27.730Z,98195.22
2018-03-02T09:33:55.191Z,98204.25
2018-03-02T09:36:22.669Z,98203.69
2018-03-02T09:38:50.146Z,98207.86
2018-03-02T09:41:17.623Z,98198.58
2018-03-02T09:43:45.083Z,98194.63
2018-03-02T09:46:12.576Z,98202.02
2018-03-02T09:48:40.060Z,98198.97
2018-03-02T09:51:07.556Z,98202.47
2018-03-02T09:53:35.007Z,98199.39
2018-03-02T09:56:02.512Z,98196.84
2018-03-02T09:58:30.032Z,98204.77
2018-03-02T10:00:57.523Z,98206.43
2018-03-02T10:03:24.991Z,98202.83
2018-03-02T10:05:52.471Z,98202.94
2018-03-02T10:08:19.925Z,98204.31
2018-03-02T10:10:47.403Z,98204.77
2018-03-02T10:13:14.861Z,98199.95
2018-03-02T10:15:42.347Z,98205.41
2018-03-02T10:18:09.807Z,98203.56
2018-03-02T10:20:37.284Z,98203.26
2018-03-02T10:23:04.751Z,98194.97
2018-03-02T10:25:32.232Z,98195.83
2018-03-02T10:27:59.697Z,98199.84
2018-03-02T10:30:27.192Z,98198.72
2018-03-02T10:32:54.656Z,98193.19
2018-03-02T10:35:22.111Z,98199.75
2018-03-02T10:37:49.602Z,98209.81
2018-03-02T10:40:17.068Z,98208.89
2018-03-02T10:42:44.542Z,98208.48
2018-03-02T10:45:12.023Z,98202.16
2018-03-02T10:47:39.543Z,98199.45
2018-03-02T10:50:07.024Z,98201.55
2018-03-02T10:52:34.510Z,98217.92
2018-03-02T10:55:01.984Z,98210.20
2018-03-02T10:57:29.471Z,98203.21
2018-03-02T10:59:56.940Z,98199.89
2018-03-02T11:02:24.917Z,98200.36
2018-03-02T11:04:57.995Z,98195.42
2018-03-02T11:07:25.471Z,98201.26
2018-03-02T11:09:52.929Z,98189.06
2018-03-02T11:12:20.398Z,98191.34
2018-03-02T11:14:47.886Z,98207.08
2018-03-02T11:17:15.387Z,98188.56
2018-03-02T11:19:42.846Z,98189.59
2018-03-02T11:22:10.320Z,98193.01
2018-03-02T11:24:37.780Z,98198.25
2018-03-02T11:27:05.267Z,98205.56
2018-03-02T11:29:32.728Z,98206.80
2018-03-02T11:32:00.204Z,98204.52
2018-03-02T11:34:27.660Z,98210.27
2018-03-02T11:36:55.144Z,98198.48
2018-03-02T11:39:22.615Z,98215.50
2018-03-02T11:41:50.098Z,98219.47
2018-03-02T11:44:17.556Z,98222.58
2018-03-02T11:46:45.032Z,98219.07
2018-03-02T11:49:12.511Z,98213.88
2018-03-02T11:51:40.003Z,98209.57
2018-03-02T11:54:07.458Z,98218.56
2018-03-02T11:56:34.943Z,98228.84
2018-03-02T11:59:02.400Z,98226.89
2018-03-02T12:01:29.880Z,98221.02
2018-03-02T12:03:57.366Z,98231.36
2018-03-02T12:06:24.837Z,98229.41
2018-03-02T12:08:52.331Z,98228.62
2018-03-02T12:11:19.812Z,98229.41
2018-03-02T12:13:47.296Z,98234.84
2018-03-02T12:16:14.751Z,98229.16
2018-03-02T12:18:42.276Z,98223.25
2018-03-02T12:21:09.743Z,98234.77
2018-03-02T12:23:37.224Z,98223.58
2018-03-02T12:26:04.692Z,98232.42
2018-03-02T12:28:32.201Z,98237.03
2018-03-02T12:30:59.695Z,98244.39
2018-03-02T12:33:27.156Z,98247.55
2018-03-02T12:35:54.664Z,98241.16
2018-03-02T12:38:22.161Z,98242.05
2018-03-02T12:40:49.625Z,98233.24
2018-03-02T12:43:17.140Z,98234.13
2018-03-02T12:45:45.044Z,98227.11
2018-03-02T12:48:12.525Z,98232.23
2018-03-02T12:50:39.988Z,98239.00
2018-03-02T12:53:07.492Z,98235.64
2018-03-02T12:55:34.967Z,98236.84
2018-03-02T12:58:02.444Z,98240.59
2018-03-02T13:00:29.957Z,98238.59
2018-03-02T13:02:57.431Z,98238.20
2018-03-02T13:05:24.888Z,98227.60
2018-03-02T13:07:53.220Z,98232.25
2018-03-02T13:10:20.678Z,98229.44
2018-03-02T13:12:48.170Z,98224.59
2018-03-02T13:15:15.627Z,98220.09
2018-03-02T13:17:43.105Z,98210.44
2018-03-02T13:20:10.567Z,98209.09
2018-03-02T13:22:41.333Z,98206.12
2018-03-02T13:25:08.801Z,98204.52
2018-03-02T13:30:40.230Z,98202.42
2018-03-02T13:33:19.492Z,98193.48
2018-03-02T13:35:46.952Z,98192.41
2018-03-02T13:38:14.442Z,98194.15
2018-03-02T13:40:53.595Z,98188.57
2018-03-02T13:43:21.082Z,98192.29
2018-03-02T13:45:48.547Z,98183.39
2018-03-02T13:48:36.563Z,98180.23
2018-03-02T13:51:04.031Z,98176.30
2018-03-02T13:53:31.517Z,98187.14
2018-03-02T13:55:58.978Z,98186.69
2018-03-02T13:58:26.450Z,98183.08
2018-03-02T14:00:53.931Z,98168.15
2018-03-02T14:03:33.162Z,98168.07
2018-03-02T14:06:00.649Z,98161.80
2018-03-02T14:08:28.111Z,98170.61
2018-03-02T14:10:55.594Z,98174.13
2018-03-02T14:13:23.052Z,98163.97
2018-03-02T14:15:50.540Z,98163.70
2018-03-02T14:18:18.007Z,98163.63
2018-03-02T14:20:45.497Z,98166.30
2018-03-02T14:23:12.980Z,98166.05
2018-03-02T14:25:40.497Z,98170.17
2018-03-02T14:28:07.977Z,98169.13
2018-03-02T14:30:35.455Z,98170.68
2018-03-02T14:33:02.947Z,98171.41
2018-03-02T14:35:30.423Z,98171.67
2018-03-02T14:37:57.880Z,98168.95
2018-03-02T14:40:25.374Z,98175.79
2018-03-02T14:42:52.830Z,98170.70
2018-03-02T14:45:21.152Z,98180.66
2018-03-02T14:47:48.623Z,98172.30
2018-03-02T14:50:16.163Z,98172.75
2018-03-02T14:52:43.632Z,98172.59
2018-03-02T14:55:11.099Z,98182.45
2018-03-02T14:57:38.609Z,98182.95
2018-03-02T15:00:06.067Z,98179.59
2018-03-02T15:02:33.543Z,98179.59
2018-03-02T15:05:01.019Z,98184.12
2018-03-02T15:07:28.554Z,98188.16
2018-03-02T15:09:56.003Z,98189.64
2018-03-02T15:12:23.479Z,98184.70
2018-03-02T15:14:50.955Z,98186.31
2018-03-02T15:17:18.443Z,98191.64
2018-03-02T15:19:45.904Z,98189.00
2018-03-02T15:22:13.387Z,98194.97
2018-03-02T15:24:40.843Z,98191.84
2018-03-02T15:27:08.320Z,98192.30
2018-03-02T15:29:35.793Z,98194.16
2018-03-02T15:32:03.311Z,98199.78
2018-03-02T15:34:31.040Z,98206.02
2018-03-02T15:36:58.516Z,98202.53
2018-03-02T15:39:25.987Z,98207.20
2018-03-02T15:41:53.484Z,98213.28
2018-03-02T15:44:20.950Z,98216.38
2018-03-02T15:46:48.432Z,98216.84
2018-03-02T15:49:15.893Z,98223.73
2018-03-02T15:51:43.376Z,98227.16
2018-03-02T15:54:10.844Z,98227.46
2018-03-02T15:56:38.365Z,98227.33
2018-03-02T15:59:05.891Z,98233.31
2018-03-02T16:01:33.375Z,98235.83
2018-03-02T16:04:00.835Z,98237.30
2018-03-02T16:06:29.015Z,98231.37
2018-03-02T16:08:56.463Z,98235.39
2018-03-02T16:11:23.948Z,98232.33
2018-03-02T16:13:51.458Z,98238.61
2018-03-02T16:16:18.990Z,98240.98
2018-03-02T16:18:46.510Z,98248.87
2018-03-02T16:21:14.005Z,98250.36
2018-03-02T16:23:41.513Z,98251.97
2018-03-02T16:26:08.983Z,98260.75
2018-03-02T16:28:36.465Z,98266.23
2018-03-02T16:31:03.926Z,98267.05
2018-03-02T16:33:31.411Z,98266.91
2018-03-02T16:35:58.884Z,98272.25
2018-03-02T16:38:26.368Z,98277.89
2018-03-02T16:40:53.835Z,98281.70
2018-03-02T16:43:21.325Z,98283.58
2018-03-02T16:45:48.856Z,98290.02
2018-03-02T16:48:16.344Z,98289.52
2018-03-02T16:50:43.823Z,98291.50
2018-03-02T16:53:11.313Z,98299.48
2018-03-02T16:55:38.776Z,98300.47
2018-03-02T16:58:06.268Z,98302.27
2018-03-02T17:00:33.733Z,98299.51
2018-03-02T17:03:01.220Z,98308.33
2018-03-02T17:05:28.692Z,98306.65
2018-03-02T17:07:56.195Z,98307.44
2018-03-02T17:10:23.687Z,98310.04
2018-03-02T17:12:51.209Z,98308.61
2018-03-02T17:15:18.666Z,98315.60
2018-03-02T17:17:46.178Z,98311.09
2018-03-02T17:20:13.676Z,98314.38
2018-03-02T17:22:41.160Z,98315.30
2018-03-02T17:25:08.624Z,98320.04
2018-03-02T17:27:36.109Z,98322.77
2018-03-02T17:30:04.527Z,98318.61
2018-03-02T17:32:32.016Z,98323.93
2018-03-02T17:34:59.495Z,98324.23
2018-03-02T17:37:26.990Z,98326.53
2018-03-02T17:39:54.451Z,98321.23
2018-03-02T17:42:21.931Z,98329.95
2018-03-02T17:44:49.435Z,98328.09
2018-03-02T17:47:16.899Z,98339.38
2018-03-02T17:49:44.380Z,98340.48
2018-03-02T17:52:11.844Z,98343.22
2018-03-02T17:54:39.331Z,98349.26
2018-03-02T17:57:06.799Z,98349.98
2018-03-02T17:59:36.190Z,98352.27
2018-03-02T18:02:06.805Z,98349.53
2018-03-02T18:04:34.287Z,98356.40
2018-03-02T18:07:01.763Z,98355.48
2018-03-02T18:09:29.268Z,98349.94
2018-03-02T18:11:56.723Z,98360.28
2018-03-02T18:14:24.208Z,98353.01
2018-03-02T18:16:51.674Z,98349.77
2018-03-02T18:19:19.164Z,98351.00
2018-03-02T18:21:46.631Z,98351.24
2018-03-02T18:24:14.111Z,98351.31
2018-03-02T18:26:41.575Z,98348.65
2018-03-02T18:29:09.102Z,98358.44
2018-03-02T18:31:36.567Z,98356.43
2018-03-02T18:34:04.043Z,98354.09
2018-03-02T18:36:31.507Z,98346.77
2018-03-02T18:38:58.983Z,98348.61
2018-03-02T18:41:26.467Z,98341.75
2018-03-02T18:43:53.948Z,98338.00
2018-03-02T18:46:21.580Z,98343.16
2018-03-02T18:48:49.075Z,98347.83
2018-03-02T18:51:19.863Z,98355.82
2018-03-02T18:53:47.349Z,98351.14
2018-03-02T18:56:14.842Z,98351.95
2018-03-02T18:58:42.404Z,98350.05
2018-03-02T19:01:09.853Z,98352.67
2018-03-02T19:03:37.335Z,98352.41
2018-03-02T19:06:04.807Z,98352.17
2018-03-02T19:08:32.270Z,98349.64
2018-03-02T19:10:59.759Z,98355.59
2018-03-02T19:13:27.228Z,98356.20
2018-03-02T19:15:54.706Z,98356.52
2018-03-02T19:18:22.171Z,98355.30
2018-03-02T19:20:49.664Z,98353.01
2018-03-02T19:23:17.141Z,98358.44
2018-03-02T19:25:44.645Z,98354.55
2018-03-02T19:28:12.123Z,98360.34
2018-03-02T19:30:39.623Z,98360.52
2018-03-02T19:33:07.098Z,98360.27
2018-03-02T19:35:34.648Z,98371.77
2018-03-02T19:38:02.139Z,98365.11
2018-03-02T19:40:29.624Z,98368.08
2018-03-02T19:42:57.092Z,98368.69
2018-03-02T19:45:24.628Z,98371.45
2018-03-02T19:47:52.087Z,98369.88
2018-03-02T19:50:19.567Z,98374.88
2018-03-02T19:52:47.031Z,98375.97
2018-03-02T19:55:14.519Z,98372.62
2018-03-02T19:57:42.971Z,98376.77
2018-03-02T20:00:10.459Z,98370.39
2018-03-02T20:02:37.927Z,98375.05
2018-03-02T20:05:05.407Z,98375.13
2018-03-02T20:07:32.885Z,98380.13
2018-03-02T20:10:00.446Z,98379.03
2018-03-02T20:12:27.847Z,98383.13
2018-03-02T20:14:55.335Z,98389.83
2018-03-02T20:17:22.812Z,98388.42
2018-03-02T20:19:50.325Z,98389.95
2018-03-02T20:22:18.025Z,98390.44
2018-03-02T20:24:45.529Z,98393.83
2018-03-02T20:27:12.986Z,98395.57
2018-03-02T20:29:40.473Z,98391.81
2018-03-02T20:32:07.943Z,98395.66
2018-03-02T20:34:35.401Z,98398.94
2018-03-02T20:37:02.885Z,98398.86
2018-03-02T20:39:30.357Z,98391.73
2018-03-02T20:41:57.847Z,98393.72
2018-03-02T20:44:25.368Z,98388.39
2018-03-02T20:46:52.854Z,98388.55
2018-03-02T20:49:20.313Z,98388.27
2018-03-02T20:51:47.795Z,98391.98
2018-03-02T20:54:15.250Z,98388.32
2018-03-02T20:56:42.780Z,98385.95
2018-03-02T20:59:10.247Z,98389.23
2018-03-02T21:01:37.815Z,98389.88
2018-03-02T21:04:05.284Z,98381.98
2018-03-02T21:06:32.765Z,98386.34
2018-03-02T21:09:00.227Z,98386.66
2018-03-02T21:11:27.716Z,98385.64
2018-03-02T21:13:55.179Z,98382.98
2018-03-02T21:16:22.683Z,98378.88
2018-03-02T21:18:50.156Z,98383.91
2018-03-02T21:21:17.643Z,98381.25
2018-03-02T21:23:45.107Z,98378.14
2018-03-02T21:26:12.588Z,98383.83
2018-03-02T21:28:40.054Z,98375.76
2018-03-02T21:31:07.553Z,98368.16
2018-03-02T21:33:35.015Z,98372.38
2018-03-02T21:36:03.163Z,98363.23
2018-03-02T21:38:30.627Z,98360.75
2018-03-02T21:40:58.107Z,98362.67
2018-03-02T21:43:25.567Z,98357.67
2018-03-02T21:45:53.046Z,98365.84
2018-03-02T21:48:20.511Z,98366.78
2018-03-02T21:50:47.999Z,98371.55
2018-03-02T21:53:16.095Z,98370.63
2018-03-02T21:55:43.567Z,98370.23
2018-03-02T21:58:11.104Z,98374.53
2018-03-02T22:00:38.578Z,98371.36
2018-03-02T22:03:06.059Z,98373.89
2018-03-02T22:05:33.521Z,98376.13
2018-03-02T22:08:01.058Z,98370.80
2018-03-02T22:10:28.539Z,98364.72
2018-03-02T22:12:56.032Z,98357.16
2018-03-02T22:15:24.420Z,98352.88
2018-03-02T22:17:51.927Z,98342.47
2018-03-02T22:20:19.391Z,98344.39
2018-03-02T22:22:46.875Z,98348.24
2018-03-02T22:25:14.358Z,98348.71
2018-03-02T22:27:41.847Z,98355.60
2018-03-02T22:30:09.315Z,98359.60
2018-03-02T22:32:36.791Z,98353.83
2018-03-02T22:35:08.603Z,98355.42
2018-03-02T22:37:36.097Z,98347.73
2018-03-02T22:40:03.564Z,98350.19
2018-03-02T22:42:31.059Z,98344.80
2018-03-02T22:44:58.530Z,98352.31
2018-03-02T22:47:26.016Z,98349.38
2018-03-02T22:49:53.480Z,98344.56
2018-03-02T22:52:20.971Z,98349.38
2018-03-02T22:54:48.432Z,98346.98
2018-03-02T22:57:15.936Z,98339.25
2018-03-02T22:59:43.401Z,98347.89
2018-03-02T23:02:10.890Z,98342.94
2018-03-02T23:04:38.362Z,98352.30
2018-03-02T23:07:05.859Z,98344.25
2018-03-02T23:09:33.369Z,98348.08
2018-03-02T23:12:00.851Z,98339.19
2018-03-02T23:14:28.313Z,98338.02
2018-03-02T23:16:55.807Z,98334.19
2018-03-02T23:19:23.267Z,98336.30
2018-03-02T23:21:50.767Z,98333.61
2018-03-02T23:24:18.231Z,98326.33
2018-03-02T23:26:45.695Z,98324.30
2018-03-02T23:29:13.183Z,98320.17
2018-03-02T23:31:40.653Z,98318.24
2018-03-02T23:34:08.143Z,98319.31
2018-03-02T23:36:35.616Z,98319.48
2018-03-02T23:39:03.100Z,98328.98
2018-03-02T23:41:30.565Z,98330.12
2018-03-02T23:43:58.047Z,98330.20
2018-03-02T23:46:25.510Z,98333.22
2018-03-02T23:48:52.990Z,98329.67
2018-03-02T23:51:20.451Z,98325.27
2018-03-02T23:53:47.935Z,98322.48
2018-03-02T23:56:15.466Z,98319.91
2018-03-02T23:58:42.951Z,98322.16
